sensor_id;sensor_type;location;lat;lon;timestamp;pressure;altitude;pressure_sealevel;temperature;humidity
68634;BME280;55625;47.072;22.192;2023-04-21T00:01:31;99478.31;;;6.70;91.15
68634;BME280;55625;47.072;22.192;2023-04-21T00:03:57;99481.22;;;6.67;90.78
68634;BME280;55625;47.072;22.192;2023-04-21T00:06:24;99483.31;;;6.63;90.50
68634;BME280;55625;47.072;22.192;2023-04-21T00:08:51;99484.63;;;6.58;92.43
68634;BME280;55625;47.072;22.192;2023-04-21T00:11:17;99483.47;;;6.56;92.11
68634;BME280;55625;47.072;22.192;2023-04-21T00:13:43;99488.22;;;6.59;91.43
68634;BME280;55625;47.072;22.192;2023-04-21T00:16:10;99475.38;;;6.58;91.41
68634;BME280;55625;47.072;22.192;2023-04-21T00:18:36;99489.91;;;6.56;92.09
68634;BME280;55625;47.072;22.192;2023-04-21T00:21:01;99493.16;;;6.54;92.05
68634;BME280;55625;47.072;22.192;2023-04-21T00:23:27;99483.47;;;6.56;92.28
68634;BME280;55625;47.072;22.192;2023-04-21T00:25:53;99493.06;;;6.58;91.68
68634;BME280;55625;47.072;22.192;2023-04-21T00:28:19;99492.78;;;6.52;91.72
68634;BME280;55625;47.072;22.192;2023-04-21T00:30:45;99482.09;;;6.44;92.79
68634;BME280;55625;47.072;22.192;2023-04-21T00:33:11;99486.53;;;6.41;92.96
68634;BME280;55625;47.072;22.192;2023-04-21T00:35:37;99489.00;;;6.39;92.15
68634;BME280;55625;47.072;22.192;2023-04-21T00:38:02;99488.63;;;6.37;92.02
68634;BME280;55625;47.072;22.192;2023-04-21T00:40:28;99486.31;;;6.32;92.75
68634;BME280;55625;47.072;22.192;2023-04-21T00:42:54;99487.25;;;6.26;92.71
68634;BME280;55625;47.072;22.192;2023-04-21T00:45:20;99480.00;;;6.25;92.49
68634;BME280;55625;47.072;22.192;2023-04-21T00:47:46;99476.03;;;6.22;93.84
68634;BME280;55625;47.072;22.192;2023-04-21T00:50:12;99483.63;;;6.25;93.69
68634;BME280;55625;47.072;22.192;2023-04-21T00:52:42;99480.38;;;6.27;93.25
68634;BME280;55625;47.072;22.192;2023-04-21T00:55:09;99480.81;;;6.25;93.16
68634;BME280;55625;47.072;22.192;2023-04-21T00:57:36;99484.50;;;6.22;93.47
68634;BME280;55625;47.072;22.192;2023-04-21T01:00:05;99485.09;;;6.10;94.38
68634;BME280;55625;47.072;22.192;2023-04-21T01:02:35;99484.28;;;6.09;94.34
68634;BME280;55625;47.072;22.192;2023-04-21T01:05:05;99484.25;;;6.13;93.34
68634;BME280;55625;47.072;22.192;2023-04-21T01:07:34;99484.66;;;6.11;93.32
68634;BME280;55625;47.072;22.192;2023-04-21T01:10:01;99479.88;;;6.08;93.92
68634;BME280;55625;47.072;22.192;2023-04-21T01:12:28;99477.50;;;6.07;93.68
68634;BME280;55625;47.072;22.192;2023-04-21T01:14:54;99472.22;;;6.09;93.51
68634;BME280;55625;47.072;22.192;2023-04-21T01:17:20;99478.22;;;6.11;93.42
68634;BME280;55625;47.072;22.192;2023-04-21T01:19:47;99473.47;;;6.08;93.83
68634;BME280;55625;47.072;22.192;2023-04-21T01:22:13;99477.13;;;6.05;94.29
68634;BME280;55625;47.072;22.192;2023-04-21T01:24:45;99484.38;;;6.06;94.51
68634;BME280;55625;47.072;22.192;2023-04-21T01:27:17;99478.22;;;6.11;94.01
68634;BME280;55625;47.072;22.192;2023-04-21T01:29:45;99478.44;;;6.23;93.12
68634;BME280;55625;47.072;22.192;2023-04-21T01:32:23;99475.84;;;6.33;92.57
68634;BME280;55625;47.072;22.192;2023-04-21T01:34:50;99473.38;;;6.35;91.84
68634;BME280;55625;47.072;22.192;2023-04-21T01:37:22;99476.50;;;6.40;91.52
68634;BME280;55625;47.072;22.192;2023-04-21T01:39:53;99481.16;;;6.50;91.18
68634;BME280;55625;47.072;22.192;2023-04-21T01:42:23;99482.66;;;6.55;90.63
68634;BME280;55625;47.072;22.192;2023-04-21T01:44:51;99493.88;;;6.59;90.85
68634;BME280;55625;47.072;22.192;2023-04-21T01:50:58;99499.00;;;6.64;88.00
68634;BME280;55625;47.072;22.192;2023-04-21T01:53:24;99496.63;;;6.62;88.52
68634;BME280;55625;47.072;22.192;2023-04-21T01:55:51;99503.78;;;6.47;89.59
68634;BME280;55625;47.072;22.192;2023-04-21T01:58:17;99490.41;;;6.28;90.53
68634;BME280;55625;47.072;22.192;2023-04-21T02:00:43;99495.56;;;6.09;91.09
68634;BME280;55625;47.072;22.192;2023-04-21T02:03:09;99484.50;;;5.99;92.00
68634;BME280;55625;47.072;22.192;2023-04-21T02:05:34;99493.44;;;5.94;92.46
68634;BME280;55625;47.072;22.192;2023-04-21T02:08:00;99487.53;;;5.84;92.74
68634;BME280;55625;47.072;22.192;2023-04-21T02:10:26;99481.63;;;5.75;93.75
68634;BME280;55625;47.072;22.192;2023-04-21T02:12:52;99487.31;;;5.72;94.11
68634;BME280;55625;47.072;22.192;2023-04-21T02:15:18;99485.78;;;5.67;94.32
68634;BME280;55625;47.072;22.192;2023-04-21T02:17:44;99478.94;;;5.68;94.95
68634;BME280;55625;47.072;22.192;2023-04-21T02:20:10;99480.88;;;5.71;95.30
68634;BME280;55625;47.072;22.192;2023-04-21T02:22:37;99486.53;;;5.71;94.70
68634;BME280;55625;47.072;22.192;2023-04-21T02:25:04;99484.44;;;5.75;95.29
68634;BME280;55625;47.072;22.192;2023-04-21T02:27:30;99476.00;;;5.75;94.82
68634;BME280;55625;47.072;22.192;2023-04-21T02:29:56;99478.38;;;5.77;95.71
68634;BME280;55625;47.072;22.192;2023-04-21T02:32:22;99478.75;;;5.79;95.26
68634;BME280;55625;47.072;22.192;2023-04-21T02:34:47;99467.06;;;5.80;96.01
68634;BME280;55625;47.072;22.192;2023-04-21T02:37:13;99469.47;;;5.82;96.41
68634;BME280;55625;47.072;22.192;2023-04-21T02:39:39;99471.53;;;5.78;96.73
68634;BME280;55625;47.072;22.192;2023-04-21T02:42:05;99475.25;;;5.71;96.61
68634;BME280;55625;47.072;22.192;2023-04-21T02:44:31;99478.56;;;5.66;97.25
68634;BME280;55625;47.072;22.192;2023-04-21T02:46:57;99475.00;;;5.62;97.90
68634;BME280;55625;47.072;22.192;2023-04-21T02:49:22;99468.66;;;5.58;98.05
68634;BME280;55625;47.072;22.192;2023-04-21T02:51:48;99474.66;;;5.60;97.30
68634;BME280;55625;47.072;22.192;2023-04-21T02:54:14;99476.66;;;5.59;97.02
68634;BME280;55625;47.072;22.192;2023-04-21T02:56:40;99480.69;;;5.58;98.37
68634;BME280;55625;47.072;22.192;2023-04-21T02:59:06;99478.25;;;5.60;98.41
68634;BME280;55625;47.072;22.192;2023-04-21T03:01:31;99479.34;;;5.67;98.30
68634;BME280;55625;47.072;22.192;2023-04-21T03:03:57;99490.50;;;5.74;97.66
68634;BME280;55625;47.072;22.192;2023-04-21T03:06:23;99481.56;;;5.79;97.39
68634;BME280;55625;47.072;22.192;2023-04-21T03:08:49;99476.69;;;5.83;96.78
68634;BME280;55625;47.072;22.192;2023-04-21T03:11:15;99468.66;;;5.81;96.14
68634;BME280;55625;47.072;22.192;2023-04-21T03:13:40;99463.88;;;5.78;96.52
68634;BME280;55625;47.072;22.192;2023-04-21T03:16:06;99475.94;;;5.79;98.10
68634;BME280;55625;47.072;22.192;2023-04-21T03:18:34;99475.63;;;5.73;97.01
68634;BME280;55625;47.072;22.192;2023-04-21T03:21:00;99470.06;;;5.70;97.46
68634;BME280;55625;47.072;22.192;2023-04-21T03:23:26;99466.00;;;5.71;97.64
68634;BME280;55625;47.072;22.192;2023-04-21T03:25:52;99465.16;;;5.74;97.01
68634;BME280;55625;47.072;22.192;2023-04-21T03:28:18;99462.28;;;5.77;96.05
68634;BME280;55625;47.072;22.192;2023-04-21T03:30:44;99475.19;;;5.75;96.02
68634;BME280;55625;47.072;22.192;2023-04-21T03:33:10;99471.34;;;5.65;96.13
68634;BME280;55625;47.072;22.192;2023-04-21T03:35:36;99483.56;;;5.55;94.76
68634;BME280;55625;47.072;22.192;2023-04-21T03:38:02;99490.50;;;5.47;95.47
68634;BME280;55625;47.072;22.192;2023-04-21T03:40:27;99485.72;;;5.44;96.38
68634;BME280;55625;47.072;22.192;2023-04-21T03:42:53;99501.41;;;5.45;96.54
68634;BME280;55625;47.072;22.192;2023-04-21T03:45:19;99491.72;;;5.46;96.14
68634;BME280;55625;47.072;22.192;2023-04-21T03:47:47;99498.50;;;5.52;95.79
68634;BME280;55625;47.072;22.192;2023-04-21T03:50:13;99499.25;;;5.56;96.32
68634;BME280;55625;47.072;22.192;2023-04-21T03:52:39;99497.28;;;5.53;95.82
68634;BME280;55625;47.072;22.192;2023-04-21T03:55:06;99500.53;;;5.48;96.10
68634;BME280;55625;47.072;22.192;2023-04-21T03:57:38;99501.34;;;5.48;96.26
68634;BME280;55625;47.072;22.192;2023-04-21T04:00:06;99506.41;;;5.60;95.36
68634;BME280;55625;47.072;22.192;2023-04-21T04:02:31;99504.22;;;5.72;94.58
68634;BME280;55625;47.072;22.192;2023-04-21T04:04:58;99508.91;;;5.78;94.05
68634;BME280;55625;47.072;22.192;2023-04-21T04:07:24;99504.34;;;5.91;94.36
68634;BME280;55625;47.072;22.192;2023-04-21T04:09:50;99504.56;;;6.01;93.27
68634;BME280;55625;47.072;22.192;2023-04-21T04:12:16;99503.59;;;6.11;91.95
68634;BME280;55625;47.072;22.192;2023-04-21T04:14:42;99503.41;;;6.21;90.81
68634;BME280;55625;47.072;22.192;2023-04-21T04:17:08;99499.19;;;6.33;90.57
68634;BME280;55625;47.072;22.192;2023-04-21T04:19:34;99499.41;;;6.42;91.10
68634;BME280;55625;47.072;22.192;2023-04-21T04:22:00;99509.69;;;6.52;90.97
68634;BME280;55625;47.072;22.192;2023-04-21T04:24:26;99514.75;;;6.61;90.31
68634;BME280;55625;47.072;22.192;2023-04-21T04:26:52;99518.16;;;6.72;89.72
68634;BME280;55625;47.072;22.192;2023-04-21T04:29:20;99523.09;;;6.88;87.94
68634;BME280;55625;47.072;22.192;2023-04-21T04:31:51;99517.91;;;7.06;88.55
68634;BME280;55625;47.072;22.192;2023-04-21T04:34:17;99520.41;;;7.21;88.60
68634;BME280;55625;47.072;22.192;2023-04-21T04:36:44;99522.94;;;7.35;87.21
68634;BME280;55625;47.072;22.192;2023-04-21T04:39:10;99523.25;;;7.57;85.76
68634;BME280;55625;47.072;22.192;2023-04-21T04:41:37;99530.78;;;7.79;85.57
68634;BME280;55625;47.072;22.192;2023-04-21T04:44:03;99539.56;;;8.01;83.58
68634;BME280;55625;47.072;22.192;2023-04-21T04:46:30;99532.22;;;8.20;83.70
68634;BME280;55625;47.072;22.192;2023-04-21T04:48:56;99543.56;;;8.36;83.51
68634;BME280;55625;47.072;22.192;2023-04-21T04:51:22;99546.34;;;8.53;83.99
68634;BME280;55625;47.072;22.192;2023-04-21T04:53:48;99531.84;;;8.67;83.98
68634;BME280;55625;47.072;22.192;2023-04-21T04:56:14;99543.91;;;8.84;83.36
68634;BME280;55625;47.072;22.192;2023-04-21T04:58:40;99549.75;;;9.06;84.75
68634;BME280;55625;47.072;22.192;2023-04-21T05:01:16;99556.66;;;9.33;84.48
68634;BME280;55625;47.072;22.192;2023-04-21T05:03:43;99554.31;;;9.57;82.40
68634;BME280;55625;47.072;22.192;2023-04-21T05:06:09;99547.09;;;9.82;81.21
68634;BME280;55625;47.072;22.192;2023-04-21T05:08:36;99551.38;;;9.99;80.95
68634;BME280;55625;47.072;22.192;2023-04-21T05:11:02;99551.03;;;10.10;79.66
68634;BME280;55625;47.072;22.192;2023-04-21T05:13:27;99553.13;;;10.22;76.85
68634;BME280;55625;47.072;22.192;2023-04-21T05:15:58;99557.03;;;10.37;76.96
68634;BME280;55625;47.072;22.192;2023-04-21T05:18:25;99551.38;;;10.50;77.36
68634;BME280;55625;47.072;22.192;2023-04-21T05:20:51;99551.78;;;10.61;76.68
68634;BME280;55625;47.072;22.192;2023-04-21T05:23:16;99548.94;;;10.74;74.62
68634;BME280;55625;47.072;22.192;2023-04-21T05:25:43;99542.13;;;10.93;75.96
68634;BME280;55625;47.072;22.192;2023-04-21T05:28:09;99536.59;;;11.11;75.16
68634;BME280;55625;47.072;22.192;2023-04-21T05:30:34;99541.97;;;11.09;74.93
68634;BME280;55625;47.072;22.192;2023-04-21T05:33:00;99546.44;;;10.98;74.55
68634;BME280;55625;47.072;22.192;2023-04-21T05:35:29;99547.88;;;10.80;75.06
68634;BME280;55625;47.072;22.192;2023-04-21T05:37:55;99550.59;;;10.71;77.05
68634;BME280;55625;47.072;22.192;2023-04-21T05:40:21;99555.94;;;10.69;77.46
68634;BME280;55625;47.072;22.192;2023-04-21T05:42:47;99551.84;;;10.70;79.32
68634;BME280;55625;47.072;22.192;2023-04-21T05:45:13;99554.03;;;10.66;78.26
68634;BME280;55625;47.072;22.192;2023-04-21T05:47:38;99561.41;;;10.64;78.08
68634;BME280;55625;47.072;22.192;2023-04-21T05:50:06;99564.38;;;10.60;78.15
68634;BME280;55625;47.072;22.192;2023-04-21T05:52:32;99558.75;;;10.47;77.18
68634;BME280;55625;47.072;22.192;2023-04-21T05:54:59;99567.16;;;10.38;79.28
68634;BME280;55625;47.072;22.192;2023-04-21T05:57:25;99555.59;;;10.45;79.23
68634;BME280;55625;47.072;22.192;2023-04-21T05:59:51;99563.50;;;10.50;77.79
68634;BME280;55625;47.072;22.192;2023-04-21T06:02:17;99565.88;;;10.52;78.11
68634;BME280;55625;47.072;22.192;2023-04-21T06:04:43;99565.50;;;10.63;77.93
68634;BME280;55625;47.072;22.192;2023-04-21T06:07:10;99558.56;;;10.76;76.83
68634;BME280;55625;47.072;22.192;2023-04-21T06:09:39;99570.22;;;11.13;77.27
68634;BME280;55625;47.072;22.192;2023-04-21T06:12:06;99555.00;;;11.72;72.97
68634;BME280;55625;47.072;22.192;2023-04-21T06:14:32;99569.28;;;12.22;70.87
68634;BME280;55625;47.072;22.192;2023-04-21T06:16:58;99564.50;;;12.59;67.33
68634;BME280;55625;47.072;22.192;2023-04-21T06:19:24;99562.47;;;12.78;66.19
68634;BME280;55625;47.072;22.192;2023-04-21T06:21:50;99563.59;;;13.07;63.87
68634;BME280;55625;47.072;22.192;2023-04-21T06:24:16;99558.09;;;13.31;64.61
68634;BME280;55625;47.072;22.192;2023-04-21T06:26:50;99564.41;;;13.54;62.24
68634;BME280;55625;47.072;22.192;2023-04-21T06:29:17;99561.66;;;13.68;61.16
68634;BME280;55625;47.072;22.192;2023-04-21T06:31:44;99564.38;;;13.45;63.30
68634;BME280;55625;47.072;22.192;2023-04-21T06:34:09;99566.44;;;13.07;62.84
68634;BME280;55625;47.072;22.192;2023-04-21T06:36:35;99560.09;;;12.76;64.26
68634;BME280;55625;47.072;22.192;2023-04-21T06:39:01;99564.34;;;12.62;65.40
68634;BME280;55625;47.072;22.192;2023-04-21T06:41:29;99561.63;;;12.50;65.65
68634;BME280;55625;47.072;22.192;2023-04-21T06:43:55;99561.00;;;12.46;67.13
68634;BME280;55625;47.072;22.192;2023-04-21T06:46:21;99565.88;;;12.45;67.68
68634;BME280;55625;47.072;22.192;2023-04-21T06:48:46;99572.38;;;12.46;68.16
68634;BME280;55625;47.072;22.192;2023-04-21T06:51:12;99574.75;;;12.47;68.19
68634;BME280;55625;47.072;22.192;2023-04-21T06:53:39;99569.69;;;12.51;68.06
68634;BME280;55625;47.072;22.192;2023-04-21T06:56:05;99567.16;;;12.53;67.12
68634;BME280;55625;47.072;22.192;2023-04-21T06:58:31;99561.81;;;12.55;68.03
68634;BME280;55625;47.072;22.192;2023-04-21T07:00:57;99569.06;;;12.47;65.85
68634;BME280;55625;47.072;22.192;2023-04-21T07:03:23;99577.44;;;12.41;68.43
68634;BME280;55625;47.072;22.192;2023-04-21T07:05:49;99570.97;;;12.50;67.03
68634;BME280;55625;47.072;22.192;2023-04-21T07:08:15;99578.38;;;12.48;64.71
68634;BME280;55625;47.072;22.192;2023-04-21T07:10:41;99578.72;;;12.50;64.95
68634;BME280;55625;47.072;22.192;2023-04-21T07:13:07;99582.03;;;12.48;65.41
68634;BME280;55625;47.072;22.192;2023-04-21T07:15:33;99575.06;;;12.49;65.14
68634;BME280;55625;47.072;22.192;2023-04-21T07:17:59;99573.66;;;12.54;63.18
68634;BME280;55625;47.072;22.192;2023-04-21T07:20:26;99556.28;;;12.61;64.41
68634;BME280;55625;47.072;22.192;2023-04-21T07:22:52;99574.19;;;12.80;65.97
68634;BME280;55625;47.072;22.192;2023-04-21T07:25:18;99573.88;;;12.96;64.32
68634;BME280;55625;47.072;22.192;2023-04-21T07:27:44;99567.88;;;13.12;64.07
68634;BME280;55625;47.072;22.192;2023-04-21T07:30:10;99573.00;;;13.17;64.47
68634;BME280;55625;47.072;22.192;2023-04-21T07:32:36;99563.78;;;13.22;63.85
68634;BME280;55625;47.072;22.192;2023-04-21T07:35:05;99560.94;;;13.31;64.70
68634;BME280;55625;47.072;22.192;2023-04-21T07:37:30;99571.38;;;13.34;63.13
68634;BME280;55625;47.072;22.192;2023-04-21T07:39:56;99557.44;;;13.36;62.35
68634;BME280;55625;47.072;22.192;2023-04-21T07:42:22;99565.03;;;13.40;62.99
68634;BME280;55625;47.072;22.192;2023-04-21T07:44:49;99568.69;;;13.49;63.93
68634;BME280;55625;47.072;22.192;2023-04-21T07:47:14;99554.88;;;13.57;62.63
68634;BME280;55625;47.072;22.192;2023-04-21T07:49:40;99559.31;;;13.58;61.72
68634;BME280;55625;47.072;22.192;2023-04-21T07:52:06;99548.69;;;13.58;63.16
68634;BME280;55625;47.072;22.192;2023-04-21T07:54:33;99558.03;;;13.59;63.72
68634;BME280;55625;47.072;22.192;2023-04-21T07:56:59;99561.19;;;13.61;63.45
68634;BME280;55625;47.072;22.192;2023-04-21T07:59:26;99558.63;;;13.72;65.16
68634;BME280;55625;47.072;22.192;2023-04-21T08:01:52;99561.31;;;13.85;65.62
68634;BME280;55625;47.072;22.192;2023-04-21T08:04:17;99563.31;;;13.93;64.33
68634;BME280;55625;47.072;22.192;2023-04-21T08:06:43;99557.28;;;14.01;64.30
68634;BME280;55625;47.072;22.192;2023-04-21T08:09:09;99569.72;;;14.21;63.73
68634;BME280;55625;47.072;22.192;2023-04-21T08:11:35;99548.38;;;14.41;61.67
68634;BME280;55625;47.072;22.192;2023-04-21T08:14:01;99550.34;;;14.58;62.23
68634;BME280;55625;47.072;22.192;2023-04-21T08:16:28;99550.53;;;14.79;60.95
68634;BME280;55625;47.072;22.192;2023-04-21T08:18:54;99544.34;;;15.19;60.79
68634;BME280;55625;47.072;22.192;2023-04-21T08:21:20;99546.88;;;15.85;61.72
68634;BME280;55625;47.072;22.192;2023-04-21T08:23:46;99536.00;;;16.04;54.87
68634;BME280;55625;47.072;22.192;2023-04-21T08:26:12;99535.63;;;15.81;50.45
68634;BME280;55625;47.072;22.192;2023-04-21T08:28:38;99531.66;;;16.43;52.77
68634;BME280;55625;47.072;22.192;2023-04-21T08:31:04;99535.31;;;16.44;49.91
68634;BME280;55625;47.072;22.192;2023-04-21T08:33:30;99525.00;;;16.67;52.91
68634;BME280;55625;47.072;22.192;2023-04-21T08:35:55;99526.13;;;17.16;49.43
68634;BME280;55625;47.072;22.192;2023-04-21T08:38:21;99527.03;;;17.27;47.59
68634;BME280;55625;47.072;22.192;2023-04-21T08:40:47;99523.34;;;17.73;47.53
68634;BME280;55625;47.072;22.192;2023-04-21T08:43:14;99526.31;;;17.58;44.50
68634;BME280;55625;47.072;22.192;2023-04-21T08:45:40;99516.91;;;17.58;45.32
68634;BME280;55625;47.072;22.192;2023-04-21T08:48:07;99520.09;;;17.65;45.11
68634;BME280;55625;47.072;22.192;2023-04-21T08:50:39;99517.81;;;17.44;44.63
68634;BME280;55625;47.072;22.192;2023-04-21T08:53:07;99507.88;;;16.93;46.51
68634;BME280;55625;47.072;22.192;2023-04-21T08:55:33;99508.63;;;17.39;45.57
68634;BME280;55625;47.072;22.192;2023-04-21T08:58:03;99510.19;;;17.66;45.41
68634;BME280;55625;47.072;22.192;2023-04-21T09:00:30;99498.66;;;17.09;46.84
68634;BME280;55625;47.072;22.192;2023-04-21T09:03:00;99507.50;;;17.31;45.22
68634;BME280;55625;47.072;22.192;2023-04-21T09:05:33;99504.38;;;17.55;45.18
68634;BME280;55625;47.072;22.192;2023-04-21T09:10:44;99502.06;;;17.33;45.15
68634;BME280;55625;47.072;22.192;2023-04-21T09:13:11;99498.91;;;17.57;44.83
68634;BME280;55625;47.072;22.192;2023-04-21T09:15:42;99499.88;;;18.06;47.65
68634;BME280;55625;47.072;22.192;2023-04-21T09:18:20;99497.19;;;17.97;45.53
68634;BME280;55625;47.072;22.192;2023-04-21T09:20:49;99502.72;;;17.75;45.66
68634;BME280;55625;47.072;22.192;2023-04-21T09:23:15;99492.09;;;18.12;43.86
68634;BME280;55625;47.072;22.192;2023-04-21T09:25:43;99489.44;;;18.51;45.72
68634;BME280;55625;47.072;22.192;2023-04-21T09:28:12;99490.41;;;18.37;43.83
68634;BME280;55625;47.072;22.192;2023-04-21T09:30:40;99491.28;;;19.03;44.75
68634;BME280;55625;47.072;22.192;2023-04-21T09:33:07;99493.09;;;18.52;43.71
68634;BME280;55625;47.072;22.192;2023-04-21T09:35:35;99490.13;;;18.78;42.97
68634;BME280;55625;47.072;22.192;2023-04-21T09:38:02;99481.28;;;18.92;43.14
68634;BME280;55625;47.072;22.192;2023-04-21T09:40:29;99488.44;;;19.25;43.83
68634;BME280;55625;47.072;22.192;2023-04-21T09:42:56;99483.19;;;19.18;44.52
68634;BME280;55625;47.072;22.192;2023-04-21T09:45:28;99484.31;;;19.48;44.15
68634;BME280;55625;47.072;22.192;2023-04-21T09:47:57;99489.34;;;19.98;42.93
68634;BME280;55625;47.072;22.192;2023-04-21T09:50:25;99491.63;;;19.38;40.36
68634;BME280;55625;47.072;22.192;2023-04-21T09:52:54;99485.09;;;19.43;42.04
68634;BME280;55625;47.072;22.192;2023-04-21T09:55:25;99483.56;;;19.81;42.80
68634;BME280;55625;47.072;22.192;2023-04-21T09:57:58;99477.25;;;20.16;42.66
68634;BME280;55625;47.072;22.192;2023-04-21T10:00:27;99473.03;;;20.40;40.19
68634;BME280;55625;47.072;22.192;2023-04-21T10:02:56;99471.44;;;20.56;40.10
68634;BME280;55625;47.072;22.192;2023-04-21T10:05:22;99462.28;;;20.35;38.76
68634;BME280;55625;47.072;22.192;2023-04-21T10:07:48;99474.09;;;20.31;40.23
68634;BME280;55625;47.072;22.192;2023-04-21T10:12:50;99473.75;;;19.01;40.09
68634;BME280;55625;47.072;22.192;2023-04-21T10:15:32;99473.13;;;18.74;40.71
68634;BME280;55625;47.072;22.192;2023-04-21T10:18:17;99468.06;;;19.34;40.56
68634;BME280;55625;47.072;22.192;2023-04-21T10:21:17;99461.84;;;19.75;42.46
68634;BME280;55625;47.072;22.192;2023-04-21T10:23:47;99456.28;;;20.16;40.50
68634;BME280;55625;47.072;22.192;2023-04-21T10:26:24;99456.34;;;19.82;40.37
68634;BME280;55625;47.072;22.192;2023-04-21T10:29:03;99458.69;;;20.06;39.43
68634;BME280;55625;47.072;22.192;2023-04-21T10:31:56;99457.59;;;19.42;39.50
68634;BME280;55625;47.072;22.192;2023-04-21T10:42:16;99444.81;;;19.82;38.92
68634;BME280;55625;47.072;22.192;2023-04-21T10:49:56;99444.53;;;19.86;38.08
68634;BME280;55625;47.072;22.192;2023-04-21T10:52:33;99436.13;;;19.21;38.88
68634;BME280;55625;47.072;22.192;2023-04-21T10:57:24;99424.34;;;20.14;39.47
68634;BME280;55625;47.072;22.192;2023-04-21T10:59:51;99433.56;;;19.90;37.21
68634;BME280;55625;47.072;22.192;2023-04-21T11:02:18;99431.72;;;19.93;38.51
68634;BME280;55625;47.072;22.192;2023-04-21T11:04:44;99423.09;;;19.76;40.63
68634;BME280;55625;47.072;22.192;2023-04-21T11:07:14;99426.75;;;19.93;38.57
68634;BME280;55625;47.072;22.192;2023-04-21T11:09:42;99422.84;;;19.74;37.88
68634;BME280;55625;47.072;22.192;2023-04-21T11:12:12;99420.50;;;19.67;36.89
68634;BME280;55625;47.072;22.192;2023-04-21T11:14:40;99414.94;;;20.08;38.62
68634;BME280;55625;47.072;22.192;2023-04-21T11:17:18;99414.31;;;20.54;39.79
68634;BME280;55625;47.072;22.192;2023-04-21T11:19:52;99421.84;;;20.68;36.75
68634;BME280;55625;47.072;22.192;2023-04-21T11:22:21;99420.44;;;19.89;39.19
68634;BME280;55625;47.072;22.192;2023-04-21T11:24:50;99419.59;;;20.33;39.80
68634;BME280;55625;47.072;22.192;2023-04-21T11:27:17;99411.69;;;20.39;39.30
68634;BME280;55625;47.072;22.192;2023-04-21T11:29:48;99416.00;;;20.05;40.42
68634;BME280;55625;47.072;22.192;2023-04-21T11:32:15;99414.44;;;19.81;39.89
68634;BME280;55625;47.072;22.192;2023-04-21T11:34:42;99413.13;;;19.82;38.89
68634;BME280;55625;47.072;22.192;2023-04-21T11:37:12;99412.34;;;19.88;40.24
68634;BME280;55625;47.072;22.192;2023-04-21T11:39:40;99423.34;;;19.83;37.56
68634;BME280;55625;47.072;22.192;2023-04-21T11:42:09;99407.66;;;19.73;39.75
68634;BME280;55625;47.072;22.192;2023-04-21T11:44:44;99418.38;;;19.84;37.72
68634;BME280;55625;47.072;22.192;2023-04-21T11:47:18;99414.19;;;19.91;38.15
68634;BME280;55625;47.072;22.192;2023-04-21T11:49:49;99404.28;;;19.64;38.21
68634;BME280;55625;47.072;22.192;2023-04-21T11:52:36;99405.53;;;19.35;38.62
68634;BME280;55625;47.072;22.192;2023-04-21T11:55:04;99409.47;;;19.37;39.42
68634;BME280;55625;47.072;22.192;2023-04-21T11:57:32;99398.22;;;19.45;38.23
68634;BME280;55625;47.072;22.192;2023-04-21T12:00:03;99397.19;;;19.59;38.46
68634;BME280;55625;47.072;22.192;2023-04-21T12:02:32;99405.78;;;20.04;38.80
68634;BME280;55625;47.072;22.192;2023-04-21T12:05:05;99401.81;;;20.24;37.61
68634;BME280;55625;47.072;22.192;2023-04-21T12:07:34;99397.09;;;20.26;38.06
68634;BME280;55625;47.072;22.192;2023-04-21T12:10:01;99396.34;;;20.03;37.38
68634;BME280;55625;47.072;22.192;2023-04-21T12:12:28;99392.69;;;19.86;36.73
68634;BME280;55625;47.072;22.192;2023-04-21T12:14:54;99384.72;;;20.37;37.99
68634;BME280;55625;47.072;22.192;2023-04-21T12:17:20;99393.59;;;20.50;35.40
68634;BME280;55625;47.072;22.192;2023-04-21T12:19:46;99388.88;;;20.47;36.48
68634;BME280;55625;47.072;22.192;2023-04-21T12:22:16;99392.13;;;20.10;35.29
68634;BME280;55625;47.072;22.192;2023-04-21T12:24:47;99386.19;;;19.69;37.34
68634;BME280;55625;47.072;22.192;2023-04-21T12:27:13;99388.53;;;19.31;37.66
68634;BME280;55625;47.072;22.192;2023-04-21T12:29:40;99386.19;;;19.35;38.69
68634;BME280;55625;47.072;22.192;2023-04-21T12:32:07;99395.09;;;19.32;37.55
68634;BME280;55625;47.072;22.192;2023-04-21T12:34:34;99394.78;;;19.13;36.76
68634;BME280;55625;47.072;22.192;2023-04-21T12:37:01;99389.81;;;19.13;35.54
68634;BME280;55625;47.072;22.192;2023-04-21T12:39:27;99395.84;;;19.04;36.01
68634;BME280;55625;47.072;22.192;2023-04-21T12:41:53;99390.09;;;19.10;35.15
68634;BME280;55625;47.072;22.192;2023-04-21T12:44:19;99389.03;;;19.13;36.74
68634;BME280;55625;47.072;22.192;2023-04-21T12:46:45;99385.91;;;19.11;37.12
68634;BME280;55625;47.072;22.192;2023-04-21T12:49:13;99384.63;;;19.34;36.65
68634;BME280;55625;47.072;22.192;2023-04-21T12:51:40;99381.19;;;19.24;35.44
68634;BME280;55625;47.072;22.192;2023-04-21T12:54:06;99382.25;;;19.33;34.93
68634;BME280;55625;47.072;22.192;2023-04-21T12:56:31;99375.44;;;19.13;36.83
68634;BME280;55625;47.072;22.192;2023-04-21T12:58:57;99380.63;;;18.81;37.38
68634;BME280;55625;47.072;22.192;2023-04-21T13:01:24;99381.81;;;18.52;38.08
68634;BME280;55625;47.072;22.192;2023-04-21T13:03:49;99380.19;;;18.40;39.40
68634;BME280;55625;47.072;22.192;2023-04-21T13:06:16;99382.69;;;18.16;39.48
68634;BME280;55625;47.072;22.192;2023-04-21T13:08:42;99384.06;;;17.83;39.71
68634;BME280;55625;47.072;22.192;2023-04-21T13:11:08;99384.25;;;17.74;40.31
68634;BME280;55625;47.072;22.192;2023-04-21T13:13:34;99380.44;;;17.88;39.04
68634;BME280;55625;47.072;22.192;2023-04-21T13:16:00;99379.25;;;18.06;41.25
68634;BME280;55625;47.072;22.192;2023-04-21T13:18:25;99377.97;;;18.07;38.35
68634;BME280;55625;47.072;22.192;2023-04-21T13:20:51;99372.69;;;18.06;39.46